createdAt,value
2018-04-30T00:02:08.907Z,6.70
2018-04-30T00:04:36.292Z,6.73
2018-04-30T00:07:02.959Z,6.37
2018-04-30T00:09:29.620Z,6.93
2018-04-30T00:11:56.320Z,7.03
2018-04-30T00:14:23.004Z,7.30
2018-04-30T00:16:49.672Z,6.47
2018-04-30T00:19:16.312Z,6.73
2018-04-30T00:21:42.964Z,7.03
2018-04-30T00:24:09.624Z,7.07
2018-04-30T00:26:36.285Z,7.13
2018-04-30T00:29:02.979Z,6.83
2018-04-30T00:31:29.665Z,7.70
2018-04-30T00:33:56.325Z,7.00
2018-04-30T00:36:23.765Z,7.20
2018-04-30T00:38:51.164Z,7.20
2018-04-30T00:41:17.812Z,7.80
2018-04-30T00:43:44.469Z,7.23
2018-04-30T00:46:11.132Z,7.23
2018-04-30T00:48:38.537Z,7.03
2018-04-30T00:51:05.196Z,6.73
2018-04-30T00:53:31.836Z,6.77
2018-04-30T00:55:58.496Z,7.23
2018-04-30T00:58:25.143Z,7.00
2018-04-30T01:00:52.551Z,7.07
2018-04-30T01:03:19.209Z,7.27
2018-04-30T01:05:45.859Z,7.67
2018-04-30T01:08:12.511Z,7.27
2018-04-30T01:10:39.177Z,7.33
2018-04-30T01:13:05.831Z,8.00
2018-04-30T01:15:33.204Z,7.90
2018-04-30T01:17:59.869Z,7.43
2018-04-30T01:20:26.512Z,7.40
2018-04-30T01:22:53.158Z,7.37
2018-04-30T01:25:20.559Z,7.27
2018-04-30T01:27:47.212Z,8.23
2018-04-30T01:30:13.884Z,7.10
2018-04-30T01:32:41.306Z,8.07
2018-04-30T01:35:07.976Z,7.57
2018-04-30T01:37:35.380Z,7.97
2018-04-30T01:40:02.053Z,7.63
2018-04-30T01:42:28.717Z,8.27
2018-04-30T01:44:56.142Z,7.97
2018-04-30T01:47:22.814Z,8.40
2018-04-30T01:49:50.217Z,8.30
2018-04-30T01:52:16.920Z,8.00
2018-04-30T01:54:43.582Z,7.90
2018-04-30T01:57:10.277Z,8.37
2018-04-30T01:59:37.681Z,8.70
2018-04-30T02:02:04.331Z,7.63
2018-04-30T02:04:31.017Z,7.80
2018-04-30T02:06:58.422Z,8.03
2018-04-30T02:09:25.083Z,7.97
2018-04-30T02:11:51.742Z,8.27
2018-04-30T02:14:19.137Z,8.13
2018-04-30T02:16:45.802Z,8.40
2018-04-30T02:19:12.457Z,7.60
2018-04-30T02:21:39.134Z,8.60
2018-04-30T02:24:05.811Z,8.27
2018-04-30T02:26:32.484Z,8.03
2018-04-30T02:28:59.883Z,8.30
2018-04-30T02:31:26.539Z,8.43
2018-04-30T02:33:53.201Z,8.23
2018-04-30T02:36:19.837Z,8.03
2018-04-30T02:38:46.497Z,7.70
2018-04-30T02:41:13.897Z,7.60
2018-04-30T02:43:40.543Z,8.17
2018-04-30T02:46:07.245Z,8.60
2018-04-30T02:48:33.900Z,8.70
2018-04-30T02:51:00.579Z,7.90
2018-04-30T02:53:27.224Z,8.07
2018-04-30T02:55:53.902Z,8.73
2018-04-30T02:58:20.552Z,8.50
2018-04-30T03:00:47.236Z,8.77
2018-04-30T03:03:13.893Z,8.83
2018-04-30T03:05:41.303Z,8.77
2018-04-30T03:08:07.976Z,8.47
2018-04-30T03:10:35.387Z,8.73
2018-04-30T03:13:02.035Z,8.37
2018-04-30T03:15:28.709Z,8.20
2018-04-30T03:17:56.176Z,8.00
2018-04-30T03:20:23.581Z,8.57
2018-04-30T03:22:50.229Z,8.20
2018-04-30T03:25:16.863Z,8.67
2018-04-30T03:27:43.557Z,8.70
2018-04-30T03:30:10.207Z,9.40
2018-04-30T03:32:36.867Z,9.10
2018-04-30T03:35:03.571Z,9.50
2018-04-30T03:37:30.241Z,9.10
2018-04-30T03:39:56.891Z,6.93
2018-04-30T03:42:23.535Z,7.10
2018-04-30T03:44:50.183Z,6.87
2018-04-30T03:47:16.864Z,7.13
2018-04-30T03:49:43.562Z,6.57
2018-04-30T03:52:10.224Z,7.10
2018-04-30T03:54:37.611Z,7.00
2018-04-30T03:57:04.269Z,5.77
2018-04-30T03:59:30.947Z,6.33
2018-04-30T04:02:16.810Z,6.23
2018-04-30T04:08:10.521Z,5.87
2018-04-30T04:10:38.083Z,6.30
2018-04-30T04:13:05.476Z,7.97
2018-04-30T04:15:32.122Z,9.23
2018-04-30T04:17:58.791Z,8.80
2018-04-30T04:20:25.557Z,8.83
2018-04-30T04:22:52.944Z,8.73
2018-04-30T04:25:19.591Z,9.43
2018-04-30T04:27:46.257Z,9.03
2018-04-30T04:30:13.829Z,9.47
2018-04-30T04:32:40.476Z,8.67
2018-04-30T04:35:07.884Z,8.07
2018-04-30T04:37:34.533Z,7.50
2018-04-30T04:40:01.171Z,8.13
2018-04-30T04:42:27.844Z,7.40
2018-04-30T04:44:55.285Z,7.07
2018-04-30T04:47:21.963Z,7.20
2018-04-30T04:49:48.618Z,7.37
2018-04-30T04:52:15.316Z,7.50
2018-04-30T04:54:52.650Z,6.23
2018-04-30T04:57:19.403Z,6.27
2018-04-30T04:59:46.136Z,5.67
2018-04-30T05:02:12.796Z,5.50
2018-04-30T05:04:39.471Z,5.17
2018-04-30T05:07:06.866Z,5.77
2018-04-30T05:09:33.544Z,5.53
2018-04-30T05:12:00.183Z,6.23
2018-04-30T05:14:26.866Z,5.07
2018-04-30T05:16:53.534Z,5.23
2018-04-30T05:19:20.203Z,4.70
2018-04-30T05:21:47.636Z,4.40
2018-04-30T05:24:14.278Z,4.70
2018-04-30T05:26:40.929Z,5.43
2018-04-30T05:29:08.328Z,5.07
2018-04-30T05:31:35.037Z,5.10
2018-04-30T05:34:02.450Z,5.47
2018-04-30T05:36:29.180Z,5.50
2018-04-30T05:38:55.824Z,5.33
2018-04-30T05:41:22.488Z,5.70
2018-04-30T05:43:49.128Z,5.73
2018-04-30T05:46:17.490Z,6.27
2018-04-30T05:48:44.191Z,4.87
2018-04-30T05:51:10.883Z,5.17
2018-04-30T05:53:37.571Z,5.77
2018-04-30T05:56:04.230Z,5.20
2018-04-30T05:58:30.934Z,5.13
2018-04-30T06:00:57.651Z,5.03
2018-04-30T06:03:25.047Z,4.60
2018-04-30T06:05:51.705Z,4.43
2018-04-30T06:08:18.405Z,4.77
2018-04-30T06:10:45.050Z,4.63
2018-04-30T06:13:11.692Z,3.40
2018-04-30T06:15:38.344Z,3.90
2018-04-30T06:18:05.759Z,3.30
2018-04-30T06:20:33.217Z,3.40
2018-04-30T06:23:00.620Z,3.23
2018-04-30T06:25:27.277Z,3.60
2018-04-30T06:27:53.961Z,3.50
2018-04-30T06:30:20.613Z,3.10
2018-04-30T06:32:47.281Z,3.37
2018-04-30T06:35:13.924Z,3.13
2018-04-30T06:37:40.564Z,3.13
2018-04-30T06:40:07.204Z,2.87
2018-04-30T06:42:33.908Z,3.17
2018-04-30T06:45:00.568Z,3.20
2018-04-30T06:47:27.241Z,3.60
2018-04-30T06:49:54.656Z,3.00
2018-04-30T06:52:21.314Z,3.13
2018-04-30T06:54:47.973Z,3.57
2018-04-30T06:57:14.632Z,4.23
2018-04-30T06:59:41.304Z,3.70
2018-04-30T07:02:07.982Z,3.07
2018-04-30T07:04:35.397Z,4.20
2018-04-30T07:07:02.092Z,3.10
2018-04-30T07:09:28.906Z,4.07
2018-04-30T07:11:56.222Z,3.20
2018-04-30T07:14:22.883Z,3.60
2018-04-30T07:16:49.547Z,3.07
2018-04-30T07:19:16.965Z,3.23
2018-04-30T07:21:45.404Z,3.30
2018-04-30T07:24:12.090Z,3.57
2018-04-30T07:26:38.824Z,3.30
2018-04-30T07:29:05.559Z,2.93
2018-04-30T07:31:32.224Z,3.20
2018-04-30T07:33:58.929Z,3.03
2018-04-30T07:36:25.599Z,3.10
2018-04-30T07:38:52.252Z,3.47
2018-04-30T07:41:19.644Z,2.87
2018-04-30T07:43:46.344Z,3.27
2018-04-30T07:46:13.805Z,3.07
2018-04-30T07:48:41.207Z,3.07
2018-04-30T07:51:07.873Z,3.10
2018-04-30T07:53:34.524Z,3.10
2018-04-30T07:56:01.918Z,3.87
2018-04-30T07:58:28.611Z,3.30
2018-04-30T08:00:55.300Z,3.10
2018-04-30T08:03:21.932Z,2.87
2018-04-30T08:05:48.600Z,3.10
2018-04-30T08:08:15.262Z,2.80
2018-04-30T08:10:41.951Z,3.00
2018-04-30T08:13:08.668Z,2.47
2018-04-30T08:15:35.327Z,2.37
2018-04-30T08:18:02.017Z,2.40
2018-04-30T08:20:29.474Z,2.70
2018-04-30T08:22:57.009Z,2.67
2018-04-30T08:25:23.695Z,2.30
2018-04-30T08:27:51.077Z,2.37
2018-04-30T08:30:17.783Z,2.40
2018-04-30T08:32:45.176Z,2.60
2018-04-30T08:35:11.877Z,2.63
2018-04-30T08:37:39.264Z,2.70
2018-04-30T08:40:05.924Z,2.33
2018-04-30T08:42:32.595Z,3.07
2018-04-30T08:45:00.161Z,2.80
2018-04-30T08:47:26.771Z,2.70
2018-04-30T08:49:53.452Z,2.50
2018-04-30T08:52:20.124Z,2.73
2018-04-30T08:54:46.820Z,3.40
2018-04-30T08:57:13.477Z,2.90
2018-04-30T08:59:40.158Z,2.60
2018-04-30T09:02:06.812Z,2.50
2018-04-30T09:04:33.464Z,2.93
2018-04-30T09:07:00.871Z,2.83
2018-04-30T09:09:27.572Z,2.50
2018-04-30T09:11:54.244Z,3.50
2018-04-30T09:14:20.897Z,3.10
2018-04-30T09:16:47.614Z,2.47
2018-04-30T09:19:14.297Z,2.40
2018-04-30T09:21:41.001Z,4.33
2018-04-30T09:24:07.691Z,2.70
2018-04-30T09:26:35.097Z,3.10
2018-04-30T09:29:01.841Z,2.70
2018-04-30T09:31:29.298Z,2.50
2018-04-30T09:33:56.094Z,3.45
2018-04-30T09:36:24.385Z,3.33
2018-04-30T09:38:51.111Z,3.00
2018-04-30T09:41:17.899Z,2.73
2018-04-30T09:43:44.604Z,3.00
2018-04-30T09:46:11.317Z,2.90
2018-04-30T09:48:38.725Z,3.20
2018-04-30T09:51:05.372Z,2.83
2018-04-30T09:53:32.058Z,3.30
2018-04-30T09:55:59.545Z,3.33
2018-04-30T09:58:26.239Z,3.47
2018-04-30T10:00:53.681Z,3.57
2018-04-30T10:03:21.204Z,3.13
2018-04-30T10:05:48.665Z,3.53
2018-04-30T10:08:15.339Z,3.30
2018-04-30T10:10:42.024Z,3.10
2018-04-30T10:13:08.682Z,3.17
2018-04-30T10:15:38.452Z,3.43
2018-04-30T10:18:05.177Z,3.50
2018-04-30T10:20:32.642Z,3.50
2018-04-30T10:23:00.043Z,3.30
2018-04-30T10:25:27.432Z,3.17
2018-04-30T10:27:54.132Z,2.97
2018-04-30T10:30:20.824Z,3.30
2018-04-30T10:32:48.212Z,3.33
2018-04-30T10:35:14.942Z,3.30
2018-04-30T10:37:41.680Z,3.33
2018-04-30T10:40:08.289Z,3.40
2018-04-30T10:42:35.693Z,3.13
2018-04-30T10:45:02.431Z,3.30
2018-04-30T10:47:29.074Z,3.23
2018-04-30T10:49:55.716Z,3.03
2018-04-30T10:52:22.376Z,3.50
2018-04-30T10:54:49.054Z,3.30
2018-04-30T10:57:15.744Z,3.37
2018-04-30T10:59:42.409Z,3.20
2018-04-30T11:02:09.102Z,3.20
2018-04-30T11:04:35.760Z,3.27
2018-04-30T11:07:02.478Z,2.87
2018-04-30T11:09:29.160Z,3.20
2018-04-30T11:11:55.812Z,3.60
2018-04-30T11:14:23.227Z,3.37
2018-04-30T11:16:49.904Z,3.80
2018-04-30T11:19:17.317Z,3.50
2018-04-30T11:21:44.012Z,3.33
2018-04-30T11:24:10.678Z,2.87
2018-04-30T11:26:37.352Z,3.33
2018-04-30T11:29:04.048Z,3.70
2018-04-30T11:31:30.707Z,3.43
2018-04-30T11:33:57.377Z,3.10
2018-04-30T11:36:24.772Z,3.30
2018-04-30T11:38:51.440Z,3.00
2018-04-30T11:41:18.113Z,3.30
2018-04-30T11:43:45.600Z,3.17
2018-04-30T11:46:12.328Z,3.17
2018-04-30T11:48:39.072Z,3.30
2018-04-30T11:51:05.832Z,3.00
2018-04-30T11:53:32.537Z,3.00
2018-04-30T11:55:59.272Z,3.00
2018-04-30T11:58:26.052Z,3.00
2018-04-30T12:00:52.720Z,3.10
2018-04-30T12:03:19.437Z,3.23
2018-04-30T12:05:46.153Z,3.10
2018-04-30T12:08:12.893Z,2.90
2018-04-30T12:10:39.565Z,2.43
2018-04-30T12:13:06.238Z,2.90
2018-04-30T12:15:33.660Z,2.80
2018-04-30T12:18:00.325Z,3.40
2018-04-30T12:20:27.817Z,2.57
2018-04-30T12:22:54.827Z,2.77
2018-04-30T12:25:21.520Z,2.70
2018-04-30T12:27:48.247Z,2.80
2018-04-30T12:30:14.989Z,2.73
2018-04-30T12:32:41.680Z,2.90
2018-04-30T12:35:09.115Z,2.70
2018-04-30T12:37:35.804Z,3.40
2018-04-30T12:40:02.562Z,2.87
2018-04-30T12:42:29.269Z,2.70
2018-04-30T12:44:55.968Z,3.03
2018-04-30T12:47:22.668Z,3.00
2018-04-30T12:49:49.400Z,3.00
2018-04-30T12:52:16.130Z,2.87
2018-04-30T12:54:42.867Z,2.77
2018-04-30T12:57:09.572Z,2.63
2018-04-30T12:59:36.252Z,2.80
2018-04-30T13:02:02.993Z,2.97
2018-04-30T13:04:29.737Z,7.20
2018-04-30T13:06:56.425Z,12.77
2018-04-30T13:09:23.092Z,3.80
2018-04-30T13:11:50.533Z,3.50
2018-04-30T13:14:17.989Z,3.33
2018-04-30T13:16:45.414Z,3.37
2018-04-30T13:19:12.097Z,3.73
2018-04-30T13:21:39.507Z,3.27
2018-04-30T13:24:06.181Z,5.20
2018-04-30T13:26:32.892Z,5.90
2018-04-30T13:28:59.611Z,4.40
2018-04-30T13:31:26.311Z,6.37
2018-04-30T13:33:53.776Z,6.13
2018-04-30T13:36:21.222Z,7.83
2018-04-30T13:38:48.611Z,8.10
2018-04-30T13:41:15.269Z,5.10
2018-04-30T13:43:41.973Z,6.30
2018-04-30T13:46:08.714Z,4.00
2018-04-30T13:48:35.399Z,3.33
2018-04-30T13:51:02.059Z,3.50
2018-04-30T13:53:28.754Z,3.30
2018-04-30T13:55:55.452Z,5.63
2018-04-30T13:58:22.867Z,5.10
2018-04-30T14:00:49.601Z,3.37
2018-04-30T14:03:16.301Z,3.50
2018-04-30T14:05:42.991Z,3.37
2018-04-30T14:08:09.669Z,3.67
2018-04-30T14:10:37.087Z,3.60
2018-04-30T14:13:03.757Z,4.13
2018-04-30T14:15:31.184Z,2.87
2018-04-30T14:17:57.863Z,3.40
2018-04-30T14:20:24.517Z,3.60
2018-04-30T14:22:51.173Z,3.33
2018-04-30T14:25:18.845Z,3.30
2018-04-30T14:27:45.625Z,6.00
2018-04-30T14:30:12.304Z,5.03
2018-04-30T14:32:38.961Z,4.50
2018-04-30T14:35:05.676Z,3.87
2018-04-30T14:37:32.363Z,4.00
2018-04-30T14:39:59.044Z,4.77
2018-04-30T14:42:25.722Z,4.87
2018-04-30T14:44:53.149Z,4.97
2018-04-30T14:47:19.836Z,3.90
2018-04-30T14:49:46.483Z,3.73
2018-04-30T14:52:13.899Z,3.53
2018-04-30T14:54:41.330Z,3.80
2018-04-30T14:57:07.976Z,3.70
2018-04-30T14:59:34.646Z,4.20
2018-04-30T15:02:01.329Z,3.37
2018-04-30T15:04:28.016Z,3.13
2018-04-30T15:06:54.876Z,3.07
2018-04-30T15:09:21.548Z,3.40
2018-04-30T15:11:48.249Z,3.10
2018-04-30T15:14:14.916Z,2.67
2018-04-30T15:16:42.336Z,2.67
2018-04-30T15:19:08.997Z,2.87
2018-04-30T15:21:36.441Z,2.30
2018-04-30T15:24:03.168Z,2.90
2018-04-30T15:26:29.826Z,2.40
2018-04-30T15:28:56.496Z,2.27
2018-04-30T15:31:23.238Z,2.40
2018-04-30T15:33:49.965Z,2.80
2018-04-30T15:36:29.376Z,2.20
2018-04-30T15:38:56.383Z,2.37
2018-04-30T15:41:23.099Z,2.67
2018-04-30T15:43:50.504Z,2.93
2018-04-30T15:46:17.215Z,2.60
2018-04-30T15:48:43.954Z,2.50
2018-04-30T15:51:10.589Z,2.30
2018-04-30T15:53:37.255Z,2.30
2018-04-30T15:56:03.979Z,2.77
2018-04-30T15:58:30.646Z,2.73
2018-04-30T16:00:57.334Z,2.33
2018-04-30T16:03:23.997Z,2.43
2018-04-30T16:05:50.660Z,2.60
2018-04-30T16:08:18.061Z,2.90
2018-04-30T16:10:44.749Z,2.73
2018-04-30T16:13:11.446Z,3.33
2018-04-30T16:15:38.109Z,2.80
2018-04-30T16:18:04.795Z,3.03
2018-04-30T16:20:31.469Z,3.80
2018-04-30T16:22:58.148Z,4.03
2018-04-30T16:25:25.596Z,4.30
2018-04-30T16:27:52.301Z,3.47
2018-04-30T16:30:18.986Z,4.23
2018-04-30T16:32:47.209Z,4.67
2018-04-30T16:35:13.862Z,2.70
2018-04-30T16:37:40.557Z,2.93
2018-04-30T16:40:07.343Z,3.03
2018-04-30T16:42:34.013Z,3.30
2018-04-30T16:45:01.489Z,3.57
2018-04-30T16:47:28.177Z,3.63
2018-04-30T16:49:54.922Z,4.20
2018-04-30T16:52:21.612Z,4.40
2018-04-30T16:54:48.304Z,4.27
2018-04-30T16:57:14.997Z,4.33
2018-04-30T16:59:41.749Z,5.90
2018-04-30T17:02:08.451Z,4.93
2018-04-30T17:04:35.924Z,3.90
2018-04-30T17:07:02.606Z,4.27
2018-04-30T17:09:29.284Z,3.73
2018-04-30T17:11:56.782Z,4.07
2018-04-30T17:14:23.419Z,3.43
2018-04-30T17:16:50.107Z,3.60
2018-04-30T17:19:17.529Z,3.77
2018-04-30T17:21:44.199Z,3.30
2018-04-30T17:24:10.972Z,3.37
2018-04-30T17:26:37.669Z,4.20
2018-04-30T17:29:04.357Z,4.90
2018-04-30T17:31:31.024Z,3.90
2018-04-30T17:33:57.737Z,4.10
2018-04-30T17:36:25.199Z,4.57
2018-04-30T17:38:51.957Z,4.07
2018-04-30T17:41:18.656Z,3.57
2018-04-30T17:43:45.364Z,3.70
2018-04-30T17:46:12.452Z,3.30
2018-04-30T17:48:39.173Z,4.17
2018-04-30T17:51:06.577Z,3.43
2018-04-30T17:53:33.269Z,4.53
2018-04-30T17:56:00.010Z,3.77
2018-04-30T17:58:26.708Z,4.10
2018-04-30T18:00:53.376Z,3.97
2018-04-30T18:03:20.822Z,4.13
2018-04-30T18:05:48.257Z,3.77
2018-04-30T18:08:14.953Z,3.93
2018-04-30T18:10:41.632Z,4.13
2018-04-30T18:13:08.342Z,4.20
2018-04-30T18:15:35.048Z,3.97
2018-04-30T18:18:02.528Z,3.83
2018-04-30T18:20:29.198Z,4.03
2018-04-30T18:22:55.937Z,3.30
2018-04-30T18:25:22.639Z,3.87
2018-04-30T18:27:49.337Z,3.87
2018-04-30T18:30:16.772Z,4.10
2018-04-30T18:32:43.460Z,3.53
2018-04-30T18:35:11.186Z,3.77
2018-04-30T18:37:37.945Z,3.70
2018-04-30T18:40:05.434Z,3.77
2018-04-30T18:42:32.137Z,3.87
2018-04-30T18:44:59.616Z,3.60
2018-04-30T18:47:26.398Z,3.97
2018-04-30T18:49:53.142Z,3.30
2018-04-30T18:52:19.878Z,3.80
2018-04-30T18:54:46.590Z,3.10
2018-04-30T18:57:14.358Z,3.00
2018-04-30T18:59:41.093Z,3.10
2018-04-30T19:02:08.675Z,3.33
2018-04-30T19:04:35.394Z,2.87
2018-04-30T19:07:02.165Z,3.50
2018-04-30T19:09:28.870Z,3.13
2018-04-30T19:11:55.579Z,3.13
2018-04-30T19:14:23.028Z,3.33
2018-04-30T19:16:50.522Z,3.23
2018-04-30T19:19:17.292Z,3.40
2018-04-30T19:21:44.013Z,3.37
2018-04-30T19:24:11.456Z,3.10
2018-04-30T19:26:38.188Z,3.50
2018-04-30T19:29:04.903Z,3.20
2018-04-30T19:31:32.361Z,3.37
2018-04-30T19:33:59.843Z,3.53
2018-04-30T19:36:26.574Z,3.33
2018-04-30T19:38:54.054Z,2.77
2018-04-30T19:41:20.740Z,3.47
2018-04-30T19:43:48.206Z,3.13
2018-04-30T19:46:15.660Z,3.60
2018-04-30T19:48:45.348Z,3.90
2018-04-30T19:51:12.086Z,3.77
2018-04-30T19:53:38.753Z,3.77
2018-04-30T19:56:06.201Z,3.70
2018-04-30T19:58:32.899Z,4.00
2018-04-30T20:00:59.607Z,3.73
2018-04-30T20:03:26.335Z,3.40
2018-04-30T20:05:53.737Z,3.80
2018-04-30T20:08:20.449Z,4.20
2018-04-30T20:10:47.150Z,3.27
2018-04-30T20:13:13.846Z,3.40
2018-04-30T20:15:40.518Z,3.67
2018-04-30T20:18:07.212Z,3.40
2018-04-30T20:20:33.900Z,3.30
2018-04-30T20:23:00.578Z,3.50
2018-04-30T20:25:27.296Z,3.97
2018-04-30T20:27:54.742Z,3.77
2018-04-30T20:30:22.233Z,3.27
2018-04-30T20:32:48.939Z,3.97
2018-04-30T20:35:16.433Z,3.60
2018-04-30T20:37:43.147Z,3.60
2018-04-30T20:40:10.568Z,3.23
2018-04-30T20:42:37.298Z,3.80
2018-04-30T20:45:04.050Z,3.70
2018-04-30T20:47:30.775Z,4.00
2018-04-30T20:49:57.729Z,3.20
2018-04-30T20:52:24.408Z,3.73
2018-04-30T20:54:51.831Z,3.07
2018-04-30T20:57:18.520Z,3.43
2018-04-30T20:59:45.209Z,4.20
2018-04-30T21:02:11.901Z,3.77
2018-04-30T21:04:38.602Z,4.03
2018-04-30T21:07:05.277Z,3.87
2018-04-30T21:09:31.988Z,3.40
2018-04-30T21:11:59.418Z,3.57
2018-04-30T21:14:26.104Z,3.80
2018-04-30T21:16:52.822Z,3.83
2018-04-30T21:19:20.258Z,4.50
2018-04-30T21:21:46.917Z,4.03
2018-04-30T21:24:15.285Z,4.13
2018-04-30T21:26:41.972Z,3.90
2018-04-30T21:29:08.632Z,3.83
2018-04-30T21:31:35.297Z,3.70
2018-04-30T21:34:02.757Z,4.37
2018-04-30T21:36:29.489Z,3.93
2018-04-30T21:38:56.181Z,3.77
2018-04-30T21:41:22.845Z,4.30
2018-04-30T21:43:49.809Z,4.10
2018-04-30T21:46:16.455Z,3.90
2018-04-30T21:48:43.881Z,4.23
2018-04-30T21:51:11.309Z,4.30
2018-04-30T21:53:37.985Z,3.73
2018-04-30T21:56:04.687Z,3.80
2018-04-30T21:58:31.347Z,3.63
2018-04-30T22:00:58.033Z,3.70
2018-04-30T22:03:25.484Z,4.07
2018-04-30T22:05:52.889Z,4.40
2018-04-30T22:08:19.564Z,4.93
2018-04-30T22:10:47.016Z,3.63
2018-04-30T22:13:13.681Z,3.70
2018-04-30T22:15:41.074Z,4.20
2018-04-30T22:18:07.751Z,3.63
2018-04-30T22:20:34.419Z,4.20
2018-04-30T22:23:01.169Z,3.63
2018-04-30T22:25:27.837Z,4.40
2018-04-30T22:27:54.502Z,4.27
2018-04-30T22:30:21.151Z,4.33
2018-04-30T22:32:48.577Z,4.43
2018-04-30T22:35:15.296Z,4.37
2018-04-30T22:37:41.937Z,3.57
2018-04-30T22:40:08.612Z,3.90
2018-04-30T22:42:35.301Z,3.83
2018-04-30T22:45:01.962Z,3.77
2018-04-30T22:47:28.637Z,3.90
2018-04-30T22:49:56.037Z,3.73
2018-04-30T22:52:23.248Z,4.00
2018-04-30T22:54:50.652Z,4.23
2018-04-30T22:57:17.317Z,4.27
2018-04-30T22:59:44.004Z,4.00
2018-04-30T23:02:10.780Z,4.53
2018-04-30T23:04:38.157Z,3.90
2018-04-30T23:07:05.609Z,3.70
2018-04-30T23:09:32.293Z,4.47
2018-04-30T23:11:59.004Z,4.20
2018-04-30T23:14:26.433Z,3.60
2018-04-30T23:16:53.133Z,4.07
2018-04-30T23:19:20.605Z,4.00
2018-04-30T23:21:47.271Z,4.87
2018-04-30T23:24:13.975Z,4.27
2018-04-30T23:26:40.624Z,4.03
2018-04-30T23:29:07.276Z,3.90
2018-04-30T23:31:33.925Z,4.77
2018-04-30T23:34:00.601Z,3.87
2018-04-30T23:36:27.276Z,4.23
2018-04-30T23:38:53.954Z,4.40
2018-04-30T23:41:21.657Z,4.30
2018-04-30T23:43:48.316Z,4.47
2018-04-30T23:46:15.047Z,4.67
2018-04-30T23:48:41.734Z,4.70
2018-04-30T23:51:09.149Z,4.17
2018-04-30T23:53:35.849Z,4.13
2018-04-30T23:56:02.518Z,4.83
2018-04-30T23:58:29.244Z,4.40
